sensor_id;sensor_type;location;lat;lon;timestamp;P1;durP1;ratioP1;P2;durP2;ratioP2
5085;SDS011;4715;51.660;7.082;2024-01-30T00:00:17;4.40;;;4.00;;
5085;SDS011;4715;51.660;7.082;2024-01-30T00:02:41;3.60;;;3.30;;
5085;SDS011;4715;51.660;7.082;2024-01-30T00:05:03;3.80;;;3.40;;
5085;SDS011;4715;51.660;7.082;2024-01-30T00:07:26;4.63;;;3.83;;
5085;SDS011;4715;51.660;7.082;2024-01-30T00:09:47;4.47;;;4.07;;
5085;SDS011;4715;51.660;7.082;2024-01-30T00:12:09;6.03;;;4.80;;
5085;SDS011;4715;51.660;7.082;2024-01-30T00:14:31;7.30;;;4.80;;
5085;SDS011;4715;51.660;7.082;2024-01-30T00:16:53;4.20;;;3.90;;
5085;SDS011;4715;51.660;7.082;2024-01-30T00:19:16;5.73;;;4.67;;
5085;SDS011;4715;51.660;7.082;2024-01-30T00:21:38;5.20;;;4.67;;
5085;SDS011;4715;51.660;7.082;2024-01-30T00:24:02;5.37;;;4.87;;
5085;SDS011;4715;51.660;7.082;2024-01-30T00:26:25;4.20;;;3.90;;
5085;SDS011;4715;51.660;7.082;2024-01-30T00:28:47;5.80;;;5.10;;
5085;SDS011;4715;51.660;7.082;2024-01-30T00:31:08;5.30;;;4.50;;
5085;SDS011;4715;51.660;7.082;2024-01-30T00:33:32;6.13;;;3.73;;
5085;SDS011;4715;51.660;7.082;2024-01-30T00:35:55;4.40;;;3.60;;
5085;SDS011;4715;51.660;7.082;2024-01-30T00:38:18;4.57;;;4.13;;
5085;SDS011;4715;51.660;7.082;2024-01-30T00:40:40;5.20;;;4.43;;
5085;SDS011;4715;51.660;7.082;2024-01-30T00:43:02;5.00;;;4.50;;
5085;SDS011;4715;51.660;7.082;2024-01-30T00:45:27;4.43;;;3.07;;
5085;SDS011;4715;51.660;7.082;2024-01-30T00:47:49;5.00;;;4.17;;
5085;SDS011;4715;51.660;7.082;2024-01-30T00:50:11;5.90;;;3.53;;
5085;SDS011;4715;51.660;7.082;2024-01-30T00:52:33;4.80;;;3.47;;
5085;SDS011;4715;51.660;7.082;2024-01-30T00:54:55;5.60;;;5.00;;
5085;SDS011;4715;51.660;7.082;2024-01-30T00:57:17;3.90;;;3.10;;
5085;SDS011;4715;51.660;7.082;2024-01-30T00:59:39;3.47;;;3.27;;
5085;SDS011;4715;51.660;7.082;2024-01-30T01:02:00;3.07;;;2.87;;
5085;SDS011;4715;51.660;7.082;2024-01-30T01:04:22;4.23;;;2.97;;
5085;SDS011;4715;51.660;7.082;2024-01-30T01:06:44;2.90;;;2.70;;
5085;SDS011;4715;51.660;7.082;2024-01-30T01:09:07;2.73;;;2.53;;
5085;SDS011;4715;51.660;7.082;2024-01-30T01:11:29;2.60;;;2.40;;
5085;SDS011;4715;51.660;7.082;2024-01-30T01:13:51;2.80;;;2.60;;
5085;SDS011;4715;51.660;7.082;2024-01-30T01:16:14;2.70;;;2.50;;
5085;SDS011;4715;51.660;7.082;2024-01-30T01:18:36;2.93;;;2.57;;
5085;SDS011;4715;51.660;7.082;2024-01-30T01:20:57;3.43;;;3.13;;
5085;SDS011;4715;51.660;7.082;2024-01-30T01:23:20;2.90;;;2.70;;
5085;SDS011;4715;51.660;7.082;2024-01-30T01:25:43;3.00;;;2.80;;
5085;SDS011;4715;51.660;7.082;2024-01-30T01:28:05;2.80;;;2.60;;
5085;SDS011;4715;51.660;7.082;2024-01-30T01:30:27;2.73;;;2.63;;
5085;SDS011;4715;51.660;7.082;2024-01-30T01:32:53;3.03;;;2.63;;
5085;SDS011;4715;51.660;7.082;2024-01-30T01:35:16;2.63;;;2.53;;
5085;SDS011;4715;51.660;7.082;2024-01-30T01:37:38;3.50;;;3.20;;
5085;SDS011;4715;51.660;7.082;2024-01-30T01:40:00;2.77;;;2.57;;
5085;SDS011;4715;51.660;7.082;2024-01-30T01:42:23;3.43;;;3.23;;
5085;SDS011;4715;51.660;7.082;2024-01-30T01:44:45;3.20;;;2.97;;
5085;SDS011;4715;51.660;7.082;2024-01-30T01:47:07;3.00;;;2.80;;
5085;SDS011;4715;51.660;7.082;2024-01-30T01:49:31;3.70;;;3.23;;
5085;SDS011;4715;51.660;7.082;2024-01-30T01:51:53;4.20;;;3.90;;
5085;SDS011;4715;51.660;7.082;2024-01-30T01:54:17;3.03;;;2.83;;
5085;SDS011;4715;51.660;7.082;2024-01-30T01:56:39;3.60;;;3.30;;
5085;SDS011;4715;51.660;7.082;2024-01-30T01:59:05;3.60;;;3.37;;
5085;SDS011;4715;51.660;7.082;2024-01-30T02:01:28;4.80;;;2.87;;
5085;SDS011;4715;51.660;7.082;2024-01-30T02:03:51;4.77;;;3.90;;
5085;SDS011;4715;51.660;7.082;2024-01-30T02:19:21;2.73;;;2.50;;
5085;SDS011;4715;51.660;7.082;2024-01-30T02:21:46;2.23;;;2.13;;
5085;SDS011;4715;51.660;7.082;2024-01-30T02:24:07;2.27;;;2.17;;
5085;SDS011;4715;51.660;7.082;2024-01-30T02:26:29;2.73;;;2.53;;
5085;SDS011;4715;51.660;7.082;2024-01-30T02:28:51;3.00;;;2.67;;
5085;SDS011;4715;51.660;7.082;2024-01-30T02:31:13;4.07;;;3.13;;
5085;SDS011;4715;51.660;7.082;2024-01-30T02:33:34;2.90;;;2.70;;
5085;SDS011;4715;51.660;7.082;2024-01-30T02:35:56;3.10;;;2.90;;
5085;SDS011;4715;51.660;7.082;2024-01-30T02:38:21;3.03;;;2.83;;
5085;SDS011;4715;51.660;7.082;2024-01-30T02:40:43;3.23;;;2.83;;
5085;SDS011;4715;51.660;7.082;2024-01-30T02:43:07;3.30;;;3.03;;
5085;SDS011;4715;51.660;7.082;2024-01-30T02:45:29;3.70;;;3.40;;
5085;SDS011;4715;51.660;7.082;2024-01-30T02:47:50;3.10;;;2.90;;
5085;SDS011;4715;51.660;7.082;2024-01-30T02:50:13;3.63;;;3.20;;
5085;SDS011;4715;51.660;7.082;2024-01-30T02:52:38;5.27;;;3.67;;
5085;SDS011;4715;51.660;7.082;2024-01-30T02:55:01;4.33;;;3.23;;
5085;SDS011;4715;51.660;7.082;2024-01-30T02:57:23;3.27;;;3.00;;
5085;SDS011;4715;51.660;7.082;2024-01-30T02:59:48;3.90;;;3.60;;
5085;SDS011;4715;51.660;7.082;2024-01-30T03:02:10;5.40;;;3.60;;
5085;SDS011;4715;51.660;7.082;2024-01-30T03:04:32;4.07;;;3.77;;
5085;SDS011;4715;51.660;7.082;2024-01-30T03:06:54;4.60;;;3.57;;
5085;SDS011;4715;51.660;7.082;2024-01-30T03:09:19;4.63;;;4.33;;
5085;SDS011;4715;51.660;7.082;2024-01-30T03:11:42;4.17;;;3.77;;
5085;SDS011;4715;51.660;7.082;2024-01-30T03:14:04;4.03;;;3.73;;
5085;SDS011;4715;51.660;7.082;2024-01-30T03:16:26;3.80;;;3.50;;
5085;SDS011;4715;51.660;7.082;2024-01-30T03:18:47;4.00;;;3.70;;
5085;SDS011;4715;51.660;7.082;2024-01-30T03:21:09;3.47;;;3.27;;
5085;SDS011;4715;51.660;7.082;2024-01-30T03:23:31;3.40;;;3.10;;
5085;SDS011;4715;51.660;7.082;2024-01-30T03:25:53;3.27;;;3.00;;
5085;SDS011;4715;51.660;7.082;2024-01-30T03:28:17;4.37;;;4.00;;
5085;SDS011;4715;51.660;7.082;2024-01-30T03:30:38;3.47;;;3.17;;
5085;SDS011;4715;51.660;7.082;2024-01-30T03:33:00;4.27;;;3.87;;
5085;SDS011;4715;51.660;7.082;2024-01-30T03:35:22;4.30;;;3.77;;
5085;SDS011;4715;51.660;7.082;2024-01-30T03:37:50;7.30;;;4.00;;
5085;SDS011;4715;51.660;7.082;2024-01-30T03:40:12;4.60;;;4.20;;
5085;SDS011;4715;51.660;7.082;2024-01-30T03:42:35;3.70;;;3.40;;
5085;SDS011;4715;51.660;7.082;2024-01-30T03:54:49;4.67;;;4.03;;
5085;SDS011;4715;51.660;7.082;2024-01-30T03:57:11;4.43;;;4.03;;
5085;SDS011;4715;51.660;7.082;2024-01-30T03:59:33;8.93;;;4.50;;
5085;SDS011;4715;51.660;7.082;2024-01-30T04:01:55;4.90;;;3.80;;
5085;SDS011;4715;51.660;7.082;2024-01-30T04:04:17;4.40;;;4.00;;
5085;SDS011;4715;51.660;7.082;2024-01-30T04:06:38;4.33;;;3.87;;
5085;SDS011;4715;51.660;7.082;2024-01-30T04:09:02;4.13;;;3.73;;
5085;SDS011;4715;51.660;7.082;2024-01-30T04:11:26;4.37;;;4.00;;
5085;SDS011;4715;51.660;7.082;2024-01-30T04:13:48;3.97;;;3.70;;
5085;SDS011;4715;51.660;7.082;2024-01-30T04:16:18;4.13;;;3.80;;
5085;SDS011;4715;51.660;7.082;2024-01-30T04:18:40;4.10;;;3.80;;
5085;SDS011;4715;51.660;7.082;2024-01-30T04:21:02;3.30;;;3.10;;
5085;SDS011;4715;51.660;7.082;2024-01-30T04:23:24;4.00;;;3.60;;
5085;SDS011;4715;51.660;7.082;2024-01-30T04:25:46;4.90;;;3.73;;
5085;SDS011;4715;51.660;7.082;2024-01-30T04:28:09;3.43;;;3.23;;
5085;SDS011;4715;51.660;7.082;2024-01-30T04:30:32;3.20;;;3.00;;
5085;SDS011;4715;51.660;7.082;2024-01-30T04:32:53;4.00;;;3.70;;
5085;SDS011;4715;51.660;7.082;2024-01-30T04:35:16;3.77;;;3.47;;
5085;SDS011;4715;51.660;7.082;2024-01-30T04:37:40;3.70;;;3.10;;
5085;SDS011;4715;51.660;7.082;2024-01-30T04:40:02;4.10;;;3.70;;
5085;SDS011;4715;51.660;7.082;2024-01-30T04:42:25;4.13;;;3.83;;
5085;SDS011;4715;51.660;7.082;2024-01-30T04:44:50;4.33;;;3.90;;
5085;SDS011;4715;51.660;7.082;2024-01-30T04:47:12;3.70;;;3.40;;
5085;SDS011;4715;51.660;7.082;2024-01-30T04:49:34;3.20;;;3.00;;
5085;SDS011;4715;51.660;7.082;2024-01-30T04:51:55;4.17;;;3.13;;
5085;SDS011;4715;51.660;7.082;2024-01-30T04:54:17;3.50;;;3.20;;
5085;SDS011;4715;51.660;7.082;2024-01-30T04:56:39;2.90;;;2.70;;
5085;SDS011;4715;51.660;7.082;2024-01-30T04:59:02;3.87;;;3.57;;
5085;SDS011;4715;51.660;7.082;2024-01-30T05:01:25;2.77;;;2.57;;
5085;SDS011;4715;51.660;7.082;2024-01-30T05:03:47;2.90;;;2.70;;
5085;SDS011;4715;51.660;7.082;2024-01-30T05:06:09;3.70;;;3.40;;
5085;SDS011;4715;51.660;7.082;2024-01-30T05:08:31;3.73;;;3.43;;
5085;SDS011;4715;51.660;7.082;2024-01-30T05:10:52;2.93;;;2.73;;
5085;SDS011;4715;51.660;7.082;2024-01-30T05:13:14;2.83;;;2.63;;
5085;SDS011;4715;51.660;7.082;2024-01-30T05:15:36;2.77;;;2.57;;
5085;SDS011;4715;51.660;7.082;2024-01-30T05:17:59;2.90;;;2.70;;
5085;SDS011;4715;51.660;7.082;2024-01-30T05:20:21;3.00;;;2.80;;
5085;SDS011;4715;51.660;7.082;2024-01-30T05:22:43;3.00;;;2.80;;
5085;SDS011;4715;51.660;7.082;2024-01-30T05:25:06;3.50;;;3.30;;
5085;SDS011;4715;51.660;7.082;2024-01-30T05:27:28;2.87;;;2.70;;
5085;SDS011;4715;51.660;7.082;2024-01-30T05:29:51;3.50;;;3.23;;
5085;SDS011;4715;51.660;7.082;2024-01-30T05:32:13;2.87;;;2.67;;
5085;SDS011;4715;51.660;7.082;2024-01-30T05:34:38;3.60;;;3.30;;
5085;SDS011;4715;51.660;7.082;2024-01-30T05:37:00;3.27;;;3.00;;
5085;SDS011;4715;51.660;7.082;2024-01-30T05:39:23;3.20;;;2.90;;
5085;SDS011;4715;51.660;7.082;2024-01-30T05:41:45;3.10;;;2.90;;
5085;SDS011;4715;51.660;7.082;2024-01-30T05:44:07;3.93;;;3.63;;
5085;SDS011;4715;51.660;7.082;2024-01-30T05:46:30;4.20;;;3.80;;
5085;SDS011;4715;51.660;7.082;2024-01-30T05:48:52;4.13;;;3.77;;
5085;SDS011;4715;51.660;7.082;2024-01-30T05:51:15;5.03;;;4.23;;
5085;SDS011;4715;51.660;7.082;2024-01-30T05:53:36;4.33;;;3.93;;
5085;SDS011;4715;51.660;7.082;2024-01-30T05:55:59;4.93;;;4.53;;
5085;SDS011;4715;51.660;7.082;2024-01-30T05:58:21;5.50;;;4.80;;
5085;SDS011;4715;51.660;7.082;2024-01-30T06:00:43;5.37;;;4.87;;
5085;SDS011;4715;51.660;7.082;2024-01-30T06:03:05;6.13;;;5.53;;
5085;SDS011;4715;51.660;7.082;2024-01-30T06:05:27;6.23;;;5.30;;
5085;SDS011;4715;51.660;7.082;2024-01-30T06:07:54;7.40;;;5.37;;
5085;SDS011;4715;51.660;7.082;2024-01-30T06:10:17;9.20;;;6.10;;
5085;SDS011;4715;51.660;7.082;2024-01-30T06:12:39;5.83;;;5.13;;
5085;SDS011;4715;51.660;7.082;2024-01-30T06:15:01;6.80;;;5.73;;
5085;SDS011;4715;51.660;7.082;2024-01-30T06:17:23;6.07;;;5.47;;
5085;SDS011;4715;51.660;7.082;2024-01-30T06:19:45;6.83;;;5.53;;
5085;SDS011;4715;51.660;7.082;2024-01-30T06:22:07;7.30;;;5.97;;
5085;SDS011;4715;51.660;7.082;2024-01-30T06:24:31;5.37;;;4.97;;
5085;SDS011;4715;51.660;7.082;2024-01-30T06:26:53;5.47;;;4.70;;
5085;SDS011;4715;51.660;7.082;2024-01-30T06:29:16;6.23;;;4.90;;
5085;SDS011;4715;51.660;7.082;2024-01-30T06:31:41;4.47;;;4.07;;
5085;SDS011;4715;51.660;7.082;2024-01-30T06:34:03;5.97;;;5.00;;
5085;SDS011;4715;51.660;7.082;2024-01-30T06:36:25;5.50;;;5.00;;
5085;SDS011;4715;51.660;7.082;2024-01-30T06:38:47;5.87;;;5.37;;
5085;SDS011;4715;51.660;7.082;2024-01-30T06:41:11;6.97;;;4.70;;
5085;SDS011;4715;51.660;7.082;2024-01-30T06:43:33;5.03;;;4.63;;
5085;SDS011;4715;51.660;7.082;2024-01-30T06:45:57;5.80;;;5.20;;
5085;SDS011;4715;51.660;7.082;2024-01-30T06:48:20;6.03;;;4.10;;
5085;SDS011;4715;51.660;7.082;2024-01-30T06:50:41;5.50;;;4.30;;
5085;SDS011;4715;51.660;7.082;2024-01-30T06:53:03;3.73;;;3.47;;
5085;SDS011;4715;51.660;7.082;2024-01-30T06:55:25;5.07;;;3.90;;
5085;SDS011;4715;51.660;7.082;2024-01-30T06:57:48;4.23;;;3.63;;
5085;SDS011;4715;51.660;7.082;2024-01-30T07:00:10;4.93;;;3.50;;
5085;SDS011;4715;51.660;7.082;2024-01-30T07:02:34;4.20;;;3.90;;
5085;SDS011;4715;51.660;7.082;2024-01-30T07:04:56;4.63;;;4.23;;
5085;SDS011;4715;51.660;7.082;2024-01-30T07:07:18;3.27;;;3.07;;
5085;SDS011;4715;51.660;7.082;2024-01-30T07:09:40;4.37;;;3.50;;
5085;SDS011;4715;51.660;7.082;2024-01-30T07:12:02;3.53;;;3.27;;
5085;SDS011;4715;51.660;7.082;2024-01-30T07:14:27;2.60;;;2.40;;
5085;SDS011;4715;51.660;7.082;2024-01-30T07:16:49;4.07;;;3.20;;
5085;SDS011;4715;51.660;7.082;2024-01-30T07:19:11;2.87;;;2.67;;
5085;SDS011;4715;51.660;7.082;2024-01-30T07:21:35;4.13;;;3.43;;
5085;SDS011;4715;51.660;7.082;2024-01-30T07:23:57;3.93;;;3.40;;
5085;SDS011;4715;51.660;7.082;2024-01-30T07:26:19;3.93;;;3.63;;
5085;SDS011;4715;51.660;7.082;2024-01-30T07:28:41;4.20;;;3.77;;
5085;SDS011;4715;51.660;7.082;2024-01-30T07:31:05;3.63;;;3.43;;
5085;SDS011;4715;51.660;7.082;2024-01-30T07:33:27;4.67;;;4.27;;
5085;SDS011;4715;51.660;7.082;2024-01-30T07:35:51;4.80;;;4.40;;
5085;SDS011;4715;51.660;7.082;2024-01-30T07:38:14;4.43;;;4.13;;
5085;SDS011;4715;51.660;7.082;2024-01-30T07:40:36;5.27;;;4.10;;
5085;SDS011;4715;51.660;7.082;2024-01-30T07:42:58;4.73;;;4.10;;
5085;SDS011;4715;51.660;7.082;2024-01-30T07:45:22;4.90;;;4.50;;
5085;SDS011;4715;51.660;7.082;2024-01-30T07:47:47;7.03;;;4.43;;
5085;SDS011;4715;51.660;7.082;2024-01-30T07:50:09;5.07;;;4.53;;
5085;SDS011;4715;51.660;7.082;2024-01-30T07:52:31;6.07;;;5.37;;
5085;SDS011;4715;51.660;7.082;2024-01-30T07:54:53;5.23;;;4.73;;
5085;SDS011;4715;51.660;7.082;2024-01-30T08:03:50;4.17;;;3.90;;
5085;SDS011;4715;51.660;7.082;2024-01-30T08:06:16;4.97;;;4.60;;
5085;SDS011;4715;51.660;7.082;2024-01-30T08:08:39;5.13;;;4.30;;
5085;SDS011;4715;51.660;7.082;2024-01-30T08:11:01;5.17;;;4.67;;
5085;SDS011;4715;51.660;7.082;2024-01-30T08:13:23;9.80;;;5.00;;
5085;SDS011;4715;51.660;7.082;2024-01-30T08:15:45;5.90;;;4.73;;
5085;SDS011;4715;51.660;7.082;2024-01-30T08:18:06;6.77;;;6.13;;
5085;SDS011;4715;51.660;7.082;2024-01-30T08:20:30;8.50;;;5.60;;
5085;SDS011;4715;51.660;7.082;2024-01-30T08:22:54;6.50;;;5.40;;
5085;SDS011;4715;51.660;7.082;2024-01-30T08:25:17;7.80;;;6.30;;
5085;SDS011;4715;51.660;7.082;2024-01-30T08:27:39;8.50;;;6.40;;
5085;SDS011;4715;51.660;7.082;2024-01-30T08:30:03;10.53;;;7.47;;
5085;SDS011;4715;51.660;7.082;2024-01-30T08:32:27;6.90;;;6.20;;
5085;SDS011;4715;51.660;7.082;2024-01-30T08:34:49;8.53;;;7.57;;
5085;SDS011;4715;51.660;7.082;2024-01-30T08:37:12;7.87;;;7.00;;
5085;SDS011;4715;51.660;7.082;2024-01-30T08:39:37;10.07;;;7.30;;
5085;SDS011;4715;51.660;7.082;2024-01-30T08:41:58;12.27;;;7.17;;
5085;SDS011;4715;51.660;7.082;2024-01-30T08:44:20;7.97;;;6.97;;
5085;SDS011;4715;51.660;7.082;2024-01-30T08:46:42;11.60;;;6.90;;
5085;SDS011;4715;51.660;7.082;2024-01-30T08:49:04;10.77;;;7.57;;
5085;SDS011;4715;51.660;7.082;2024-01-30T08:51:26;7.63;;;6.83;;
5085;SDS011;4715;51.660;7.082;2024-01-30T08:53:52;9.97;;;6.93;;
5085;SDS011;4715;51.660;7.082;2024-01-30T08:56:14;11.20;;;7.60;;
5085;SDS011;4715;51.660;7.082;2024-01-30T08:58:36;9.33;;;6.83;;
5085;SDS011;4715;51.660;7.082;2024-01-30T09:00:58;8.27;;;6.30;;
5085;SDS011;4715;51.660;7.082;2024-01-30T09:03:20;7.80;;;5.93;;
5085;SDS011;4715;51.660;7.082;2024-01-30T09:05:44;10.70;;;6.40;;
5085;SDS011;4715;51.660;7.082;2024-01-30T09:08:09;11.30;;;6.20;;
5085;SDS011;4715;51.660;7.082;2024-01-30T09:10:32;10.27;;;6.27;;
5085;SDS011;4715;51.660;7.082;2024-01-30T09:12:54;8.50;;;5.90;;
5085;SDS011;4715;51.660;7.082;2024-01-30T09:15:16;9.30;;;6.20;;
5085;SDS011;4715;51.660;7.082;2024-01-30T09:17:38;10.50;;;7.10;;
5085;SDS011;4715;51.660;7.082;2024-01-30T09:20:00;7.77;;;6.43;;
5085;SDS011;4715;51.660;7.082;2024-01-30T09:22:23;10.50;;;6.60;;
5085;SDS011;4715;51.660;7.082;2024-01-30T09:24:46;9.77;;;6.73;;
5085;SDS011;4715;51.660;7.082;2024-01-30T09:27:10;11.30;;;6.90;;
5085;SDS011;4715;51.660;7.082;2024-01-30T09:29:31;9.73;;;6.20;;
5085;SDS011;4715;51.660;7.082;2024-01-30T09:31:54;6.77;;;5.60;;
5085;SDS011;4715;51.660;7.082;2024-01-30T09:34:16;7.90;;;5.77;;
5085;SDS011;4715;51.660;7.082;2024-01-30T09:36:37;8.07;;;6.33;;
5085;SDS011;4715;51.660;7.082;2024-01-30T09:39:00;9.83;;;5.80;;
5085;SDS011;4715;51.660;7.082;2024-01-30T09:41:24;7.80;;;6.60;;
5085;SDS011;4715;51.660;7.082;2024-01-30T09:43:48;11.57;;;6.57;;
5085;SDS011;4715;51.660;7.082;2024-01-30T09:46:16;8.57;;;6.00;;
5085;SDS011;4715;51.660;7.082;2024-01-30T09:48:39;5.53;;;5.03;;
5085;SDS011;4715;51.660;7.082;2024-01-30T09:51:02;5.80;;;5.20;;
5085;SDS011;4715;51.660;7.082;2024-01-30T09:53:24;6.67;;;6.00;;
5085;SDS011;4715;51.660;7.082;2024-01-30T09:55:48;7.23;;;6.40;;
5085;SDS011;4715;51.660;7.082;2024-01-30T09:58:12;8.77;;;5.90;;
5085;SDS011;4715;51.660;7.082;2024-01-30T10:00:35;6.00;;;5.50;;
5085;SDS011;4715;51.660;7.082;2024-01-30T10:02:57;9.63;;;5.37;;
5085;SDS011;4715;51.660;7.082;2024-01-30T10:05:19;6.20;;;5.60;;
5085;SDS011;4715;51.660;7.082;2024-01-30T10:07:49;6.10;;;5.40;;
5085;SDS011;4715;51.660;7.082;2024-01-30T10:10:13;5.87;;;5.33;;
5085;SDS011;4715;51.660;7.082;2024-01-30T10:12:35;6.40;;;5.27;;
5085;SDS011;4715;51.660;7.082;2024-01-30T10:14:57;8.47;;;6.53;;
5085;SDS011;4715;51.660;7.082;2024-01-30T10:17:20;7.17;;;5.40;;
5085;SDS011;4715;51.660;7.082;2024-01-30T10:19:42;8.73;;;6.30;;
5085;SDS011;4715;51.660;7.082;2024-01-30T10:22:04;10.60;;;5.90;;
5085;SDS011;4715;51.660;7.082;2024-01-30T10:24:26;6.20;;;5.40;;
5085;SDS011;4715;51.660;7.082;2024-01-30T10:26:49;7.13;;;6.17;;
5085;SDS011;4715;51.660;7.082;2024-01-30T10:29:11;7.90;;;6.17;;
5085;SDS011;4715;51.660;7.082;2024-01-30T10:31:34;7.93;;;5.90;;
5085;SDS011;4715;51.660;7.082;2024-01-30T10:33:57;11.67;;;6.07;;
5085;SDS011;4715;51.660;7.082;2024-01-30T10:36:19;8.57;;;5.73;;
5085;SDS011;4715;51.660;7.082;2024-01-30T10:38:49;12.47;;;5.70;;
5085;SDS011;4715;51.660;7.082;2024-01-30T10:41:12;8.47;;;6.37;;
5085;SDS011;4715;51.660;7.082;2024-01-30T10:43:37;7.63;;;5.93;;
5085;SDS011;4715;51.660;7.082;2024-01-30T10:46:04;7.73;;;5.90;;
5085;SDS011;4715;51.660;7.082;2024-01-30T10:48:32;9.67;;;6.17;;
5085;SDS011;4715;51.660;7.082;2024-01-30T10:51:01;9.37;;;7.10;;
5085;SDS011;4715;51.660;7.082;2024-01-30T10:53:25;6.00;;;5.40;;
5085;SDS011;4715;51.660;7.082;2024-01-30T10:55:48;8.47;;;5.87;;
5085;SDS011;4715;51.660;7.082;2024-01-30T10:58:11;7.50;;;6.20;;
5085;SDS011;4715;51.660;7.082;2024-01-30T11:00:34;8.40;;;6.13;;
5085;SDS011;4715;51.660;7.082;2024-01-30T11:02:57;13.10;;;6.80;;
5085;SDS011;4715;51.660;7.082;2024-01-30T11:05:25;11.00;;;7.30;;
5085;SDS011;4715;51.660;7.082;2024-01-30T11:07:50;7.10;;;5.67;;
5085;SDS011;4715;51.660;7.082;2024-01-30T11:10:13;6.30;;;5.80;;
5085;SDS011;4715;51.660;7.082;2024-01-30T11:12:38;8.63;;;5.90;;
5085;SDS011;4715;51.660;7.082;2024-01-30T11:15:07;5.97;;;5.40;;
5085;SDS011;4715;51.660;7.082;2024-01-30T11:17:29;11.77;;;6.37;;
5085;SDS011;4715;51.660;7.082;2024-01-30T11:20:01;9.90;;;6.83;;
5085;SDS011;4715;51.660;7.082;2024-01-30T11:22:25;8.50;;;6.73;;
5085;SDS011;4715;51.660;7.082;2024-01-30T11:24:50;12.17;;;7.10;;
5085;SDS011;4715;51.660;7.082;2024-01-30T11:27:12;7.10;;;6.20;;
5085;SDS011;4715;51.660;7.082;2024-01-30T11:29:35;9.90;;;7.57;;
5085;SDS011;4715;51.660;7.082;2024-01-30T11:31:57;11.53;;;6.90;;
5085;SDS011;4715;51.660;7.082;2024-01-30T11:34:20;9.57;;;7.40;;
5085;SDS011;4715;51.660;7.082;2024-01-30T11:36:42;10.30;;;6.80;;
5085;SDS011;4715;51.660;7.082;2024-01-30T11:39:06;10.40;;;6.73;;
5085;SDS011;4715;51.660;7.082;2024-01-30T11:41:30;10.33;;;6.47;;
5085;SDS011;4715;51.660;7.082;2024-01-30T11:43:53;8.63;;;7.50;;
5085;SDS011;4715;51.660;7.082;2024-01-30T11:46:16;7.50;;;6.53;;
5085;SDS011;4715;51.660;7.082;2024-01-30T11:48:40;17.03;;;7.40;;
5085;SDS011;4715;51.660;7.082;2024-01-30T11:51:02;17.83;;;8.47;;
5085;SDS011;4715;51.660;7.082;2024-01-30T11:53:23;9.57;;;7.00;;
5085;SDS011;4715;51.660;7.082;2024-01-30T11:55:51;12.77;;;6.67;;
5085;SDS011;4715;51.660;7.082;2024-01-30T11:58:16;12.40;;;6.43;;
5085;SDS011;4715;51.660;7.082;2024-01-30T12:00:38;8.93;;;5.80;;
5085;SDS011;4715;51.660;7.082;2024-01-30T12:03:00;9.30;;;6.83;;
5085;SDS011;4715;51.660;7.082;2024-01-30T12:05:23;8.10;;;6.87;;
5085;SDS011;4715;51.660;7.082;2024-01-30T12:07:45;11.67;;;7.37;;
5085;SDS011;4715;51.660;7.082;2024-01-30T12:10:08;10.13;;;6.57;;
5085;SDS011;4715;51.660;7.082;2024-01-30T12:12:33;10.10;;;7.23;;
5085;SDS011;4715;51.660;7.082;2024-01-30T12:14:56;12.80;;;7.07;;
5085;SDS011;4715;51.660;7.082;2024-01-30T12:17:26;9.87;;;6.70;;
5085;SDS011;4715;51.660;7.082;2024-01-30T12:19:49;9.53;;;6.80;;
5085;SDS011;4715;51.660;7.082;2024-01-30T12:22:11;15.20;;;8.20;;
5085;SDS011;4715;51.660;7.082;2024-01-30T12:24:32;9.97;;;6.80;;
5085;SDS011;4715;51.660;7.082;2024-01-30T12:26:56;8.50;;;7.27;;
5085;SDS011;4715;51.660;7.082;2024-01-30T12:29:19;9.67;;;7.93;;
5085;SDS011;4715;51.660;7.082;2024-01-30T12:31:43;11.07;;;6.50;;
5085;SDS011;4715;51.660;7.082;2024-01-30T12:34:05;10.93;;;7.03;;
5085;SDS011;4715;51.660;7.082;2024-01-30T12:36:28;9.90;;;7.10;;
5085;SDS011;4715;51.660;7.082;2024-01-30T12:38:51;11.30;;;7.23;;
5085;SDS011;4715;51.660;7.082;2024-01-30T12:41:13;12.77;;;8.00;;
5085;SDS011;4715;51.660;7.082;2024-01-30T12:43:35;8.63;;;7.33;;
5085;SDS011;4715;51.660;7.082;2024-01-30T12:45:57;7.77;;;6.70;;
5085;SDS011;4715;51.660;7.082;2024-01-30T12:48:22;8.80;;;6.37;;
5085;SDS011;4715;51.660;7.082;2024-01-30T12:50:44;11.37;;;7.27;;
5085;SDS011;4715;51.660;7.082;2024-01-30T12:53:06;12.00;;;6.70;;
5085;SDS011;4715;51.660;7.082;2024-01-30T12:55:29;11.23;;;6.27;;
5085;SDS011;4715;51.660;7.082;2024-01-30T12:57:51;9.03;;;6.70;;
5085;SDS011;4715;51.660;7.082;2024-01-30T13:00:13;14.47;;;7.50;;
5085;SDS011;4715;51.660;7.082;2024-01-30T13:02:36;10.57;;;6.70;;
5085;SDS011;4715;51.660;7.082;2024-01-30T13:05:03;8.93;;;7.93;;
5085;SDS011;4715;51.660;7.082;2024-01-30T13:07:25;9.20;;;7.10;;
5085;SDS011;4715;51.660;7.082;2024-01-30T13:09:49;9.80;;;7.40;;
5085;SDS011;4715;51.660;7.082;2024-01-30T13:12:11;8.90;;;6.47;;
5085;SDS011;4715;51.660;7.082;2024-01-30T13:14:33;10.20;;;6.20;;
5085;SDS011;4715;51.660;7.082;2024-01-30T13:16:55;8.40;;;5.70;;
5085;SDS011;4715;51.660;7.082;2024-01-30T13:19:17;8.83;;;6.43;;
5085;SDS011;4715;51.660;7.082;2024-01-30T13:21:40;13.27;;;7.27;;
5085;SDS011;4715;51.660;7.082;2024-01-30T13:24:02;12.43;;;6.87;;
5085;SDS011;4715;51.660;7.082;2024-01-30T13:26:25;14.00;;;7.70;;
5085;SDS011;4715;51.660;7.082;2024-01-30T13:28:47;10.10;;;8.67;;
5085;SDS011;4715;51.660;7.082;2024-01-30T13:31:11;9.93;;;7.70;;
5085;SDS011;4715;51.660;7.082;2024-01-30T13:33:34;9.83;;;6.93;;
5085;SDS011;4715;51.660;7.082;2024-01-30T13:35:57;12.80;;;7.70;;
5085;SDS011;4715;51.660;7.082;2024-01-30T13:38:20;11.07;;;8.20;;
5085;SDS011;4715;51.660;7.082;2024-01-30T13:40:42;13.93;;;9.73;;
5085;SDS011;4715;51.660;7.082;2024-01-30T13:43:04;9.60;;;8.07;;
5085;SDS011;4715;51.660;7.082;2024-01-30T13:45:26;9.90;;;7.30;;
5085;SDS011;4715;51.660;7.082;2024-01-30T13:47:47;12.27;;;8.07;;
5085;SDS011;4715;51.660;7.082;2024-01-30T13:50:10;13.53;;;8.87;;
5085;SDS011;4715;51.660;7.082;2024-01-30T13:52:35;8.73;;;7.73;;
5085;SDS011;4715;51.660;7.082;2024-01-30T13:55:00;8.60;;;7.37;;
5085;SDS011;4715;51.660;7.082;2024-01-30T13:57:23;11.10;;;7.57;;
5085;SDS011;4715;51.660;7.082;2024-01-30T13:59:44;8.17;;;6.70;;
5085;SDS011;4715;51.660;7.082;2024-01-30T14:02:06;8.90;;;7.57;;
5085;SDS011;4715;51.660;7.082;2024-01-30T14:04:30;10.70;;;6.50;;
5085;SDS011;4715;51.660;7.082;2024-01-30T14:06:53;9.93;;;6.67;;
5085;SDS011;4715;51.660;7.082;2024-01-30T14:09:15;10.37;;;7.70;;
5085;SDS011;4715;51.660;7.082;2024-01-30T14:11:40;9.57;;;7.20;;
5085;SDS011;4715;51.660;7.082;2024-01-30T14:14:03;6.40;;;5.80;;
5085;SDS011;4715;51.660;7.082;2024-01-30T14:16:28;11.40;;;7.80;;
5085;SDS011;4715;51.660;7.082;2024-01-30T14:18:50;14.63;;;7.90;;
5085;SDS011;4715;51.660;7.082;2024-01-30T14:21:12;10.30;;;7.77;;
5085;SDS011;4715;51.660;7.082;2024-01-30T14:23:34;13.97;;;9.97;;
5085;SDS011;4715;51.660;7.082;2024-01-30T14:25:56;12.90;;;7.43;;
5085;SDS011;4715;51.660;7.082;2024-01-30T14:28:19;16.03;;;7.60;;
5085;SDS011;4715;51.660;7.082;2024-01-30T14:30:44;10.60;;;7.63;;
5085;SDS011;4715;51.660;7.082;2024-01-30T14:33:07;13.17;;;7.10;;
5085;SDS011;4715;51.660;7.082;2024-01-30T14:35:28;19.93;;;10.00;;
5085;SDS011;4715;51.660;7.082;2024-01-30T14:37:50;14.13;;;7.80;;
5085;SDS011;4715;51.660;7.082;2024-01-30T14:40:13;13.07;;;8.00;;
5085;SDS011;4715;51.660;7.082;2024-01-30T14:42:37;10.87;;;6.87;;
5085;SDS011;4715;51.660;7.082;2024-01-30T14:45:02;8.77;;;7.60;;
5085;SDS011;4715;51.660;7.082;2024-01-30T14:47:25;13.23;;;6.90;;
5085;SDS011;4715;51.660;7.082;2024-01-30T14:49:47;10.33;;;7.37;;
5085;SDS011;4715;51.660;7.082;2024-01-30T14:52:12;8.67;;;6.80;;
5085;SDS011;4715;51.660;7.082;2024-01-30T14:54:34;7.07;;;6.40;;
5085;SDS011;4715;51.660;7.082;2024-01-30T14:56:56;12.27;;;6.30;;
5085;SDS011;4715;51.660;7.082;2024-01-30T14:59:21;6.73;;;6.13;;
5085;SDS011;4715;51.660;7.082;2024-01-30T15:01:45;8.37;;;5.87;;
5085;SDS011;4715;51.660;7.082;2024-01-30T15:04:08;7.10;;;6.43;;
5085;SDS011;4715;51.660;7.082;2024-01-30T15:06:31;6.90;;;5.33;;
5085;SDS011;4715;51.660;7.082;2024-01-30T15:08:54;6.10;;;5.50;;
5085;SDS011;4715;51.660;7.082;2024-01-30T15:11:17;7.77;;;5.00;;
5085;SDS011;4715;51.660;7.082;2024-01-30T15:13:40;9.03;;;4.40;;